Time;durP1;ratioP1;P1;durP2;ratioP2;P2;SDS_P1;SDS_P2;PMS_P1;PMS_P2;Temp;Humidity;BMP_temperature;BMP_pressure;BME280_temperature;BME280_humidity;BME280_pressure;Samples;Min_cycle;Max_cycle;Signal;HPM_P1;HPM_P2
2021/05/28 00:01:23;;;;;;;15.53;8.45;;;;;;;11.61;76.54;98159.75;1752137;80;21012;-76
2021/05/28 00:03:49;;;;;;;14.30;8.23;;;;;;;11.58;76.16;98155.70;1752092;82;20932;-76
2021/05/28 00:06:15;;;;;;;13.88;6.70;;;;;;;11.58;76.17;98157.61;1751876;82;21848;-76
2021/05/28 00:08:41;;;;;;;14.43;8.43;;;;;;;11.61;75.55;98157.58;1751877;80;20960;-76
2021/05/28 00:11:07;;;;;;;12.53;7.78;;;;;;;11.58;74.63;98160.33;1752176;82;20881;-76
2021/05/28 00:13:33;;;;;;;13.65;7.97;;;;;;;11.61;74.74;98161.10;1752140;82;21519;-76
2021/05/28 00:15:59;;;;;;;10.53;6.37;;;;;;;11.59;75.32;98161.39;1752207;81;21547;-76
2021/05/28 00:18:25;;;;;;;9.05;6.85;;;;;;;11.59;74.50;98161.94;1724804;82;21092;-76
2021/05/28 00:20:51;;;;;;;13.85;7.55;;;;;;;11.56;75.01;98164.69;1752068;80;20889;-76
2021/05/28 00:23:17;;;;;;;9.68;7.50;;;;;;;11.53;75.73;98161.70;1724479;82;20912;-76
2021/05/28 00:25:43;;;;;;;9.58;6.45;;;;;;;11.47;75.12;98157.42;1752111;82;20881;-76
2021/05/28 00:28:09;;;;;;;14.55;7.72;;;;;;;11.41;75.13;98153.92;1752079;82;21404;-76
2021/05/28 00:30:35;;;;;;;11.28;6.35;;;;;;;11.42;74.63;98158.25;1752051;80;21761;-76
2021/05/28 00:33:01;;;;;;;11.53;7.30;;;;;;;11.48;74.73;98158.49;1751983;82;21003;-76
2021/05/28 00:35:27;;;;;;;13.20;8.23;;;;;;;11.52;75.55;98168.23;1752029;81;20912;-76
2021/05/28 00:37:53;;;;;;;12.78;7.10;;;;;;;11.56;74.59;98160.61;1752348;82;20885;-76
2021/05/28 00:40:19;;;;;;;13.15;7.70;;;;;;;11.53;74.73;98167.94;1752073;81;20956;-76
2021/05/28 00:42:45;;;;;;;11.65;7.85;;;;;;;11.59;74.70;98166.82;1751986;80;20976;-76
2021/05/28 00:45:13;;;;;;;15.68;7.35;;;;;;;11.57;76.30;98157.34;1752170;82;20876;-76
2021/05/28 00:47:39;;;;;;;10.68;6.65;;;;;;;11.62;75.23;98160.55;1752072;82;21000;-76
2021/05/28 00:50:06;;;;;;;11.80;6.65;;;;;;;11.61;75.13;98172.51;1752089;80;20984;-76
2021/05/28 00:52:32;;;;;;;11.53;7.08;;;;;;;11.58;74.93;98166.56;1724853;82;20989;-76
2021/05/28 00:54:58;;;;;;;11.53;7.03;;;;;;;11.61;75.57;98170.60;1724665;82;21082;-76
2021/05/28 00:57:26;;;;;;;12.03;5.97;;;;;;;11.62;76.07;98168.15;1724445;82;20928;-76
2021/05/28 00:59:59;;;;;;;12.18;6.87;;;;;;;11.63;76.24;98171.70;1724950;82;21433;-76
2021/05/28 01:02:25;;;;;;;10.78;6.60;;;;;;;11.56;75.47;98172.02;1752051;81;20972;-76
2021/05/28 01:04:52;;;;;;;8.78;6.50;;;;;;;11.46;75.09;98176.97;1752509;82;20979;-76
2021/05/28 01:07:18;;;;;;;10.35;6.62;;;;;;;11.46;75.09;98176.97;1752167;82;21115;-76
2021/05/28 01:09:44;;;;;;;13.60;7.10;;;;;;;11.41;75.95;98180.25;1700675;82;20849;-76
2021/05/28 01:12:10;;;;;;;12.07;6.83;;;;;;;11.37;75.40;98175.94;1752155;81;21534;-76
2021/05/28 01:14:36;;;;;;;9.45;6.62;;;;;;;11.36;76.04;98180.27;1752089;81;21091;-76
2021/05/28 01:17:03;;;;;;;14.73;6.37;;;;;;;11.36;75.46;98182.44;1752555;82;21031;-76
2021/05/28 01:19:29;;;;;;;12.13;6.90;;;;;;;11.32;77.56;98182.74;1751941;81;21870;-76
2021/05/28 01:21:55;;;;;;;9.90;6.05;;;;;;;11.34;76.52;98175.12;1751921;81;21011;-76
2021/05/28 01:24:21;;;;;;;10.15;6.55;;;;;;;11.32;75.93;98181.38;1752217;82;21064;-76
2021/05/28 01:26:47;;;;;;;12.60;7.12;;;;;;;11.26;77.75;98175.17;1751951;81;20916;-76
2021/05/28 01:29:15;;;;;;;10.90;7.75;;;;;;;11.29;78.23;98182.77;1724762;82;20916;-76
2021/05/28 01:31:41;;;;;;;11.65;6.70;;;;;;;11.34;77.16;98180.55;1752054;82;21097;-76
2021/05/28 01:34:07;;;;;;;9.03;5.90;;;;;;;11.32;77.76;98187.36;1752131;81;20893;-76
2021/05/28 01:36:33;;;;;;;10.65;6.75;;;;;;;11.26;77.06;98188.73;1752233;81;20965;-76
2021/05/28 01:38:59;;;;;;;12.13;5.92;;;;;;;11.25;77.44;98195.25;1752065;80;21079;-76
2021/05/28 01:41:31;;;;;;;8.25;5.83;;;;;;;11.25;76.48;98190.38;1752139;80;20900;-76
2021/05/28 01:43:57;;;;;;;10.32;6.37;;;;;;;11.15;77.04;98190.44;1724429;82;21130;-76
2021/05/28 01:46:23;;;;;;;9.98;6.22;;;;;;;11.14;77.55;98194.23;1752067;82;20888;-76
2021/05/28 01:48:49;;;;;;;10.70;5.72;;;;;;;11.12;77.19;98186.94;1749184;81;21038;-76
2021/05/28 01:51:16;;;;;;;8.13;5.97;;;;;;;11.07;76.89;98195.08;1737143;82;20938;-76
2021/05/28 01:53:41;;;;;;;9.13;6.17;;;;;;;11.03;77.49;98196.74;1737228;82;21045;-76
2021/05/28 01:56:07;;;;;;;10.90;5.60;;;;;;;10.99;77.53;98193.75;1737548;82;20940;-76
2021/05/28 01:58:33;;;;;;;14.50;7.28;;;;;;;10.99;77.67;98201.34;1712137;82;20902;-76
2021/05/28 02:00:59;;;;;;;14.13;8.00;;;;;;;11.03;77.71;98194.84;1737205;82;20890;-76
2021/05/28 02:03:25;;;;;;;11.97;6.17;;;;;;;11.03;77.27;98193.48;1737281;82;20855;-76
2021/05/28 02:05:51;;;;;;;11.45;6.78;;;;;;;11.00;77.39;98198.08;1737333;82;21466;-76
2021/05/28 02:08:17;;;;;;;10.95;6.67;;;;;;;10.94;79.03;98197.86;1737193;82;20979;-75
2021/05/28 02:10:44;;;;;;;10.38;6.67;;;;;;;10.91;77.57;98199.20;1737460;82;20890;-75
2021/05/28 02:13:10;;;;;;;10.55;7.35;;;;;;;10.82;77.40;98202.22;1737250;82;21516;-75
2021/05/28 02:15:36;;;;;;;12.85;6.03;;;;;;;10.87;77.39;98214.42;1737225;82;20858;-75
2021/05/28 02:18:02;;;;;;;11.28;6.40;;;;;;;10.90;77.13;98215.21;1737236;82;20989;-75
2021/05/28 02:20:28;;;;;;;12.40;6.72;;;;;;;10.85;77.44;98217.95;1737364;82;21105;-76
2021/05/28 02:22:54;;;;;;;8.08;5.75;;;;;;;10.87;77.97;98210.35;1737095;82;20930;-76
2021/05/28 02:25:20;;;;;;;8.95;6.67;;;;;;;10.89;79.24;98216.84;1737177;82;20953;-76
2021/05/28 02:27:46;;;;;;;11.48;6.15;;;;;;;10.89;79.12;98230.41;1712177;82;20874;-76
2021/05/28 02:30:12;;;;;;;8.08;5.95;;;;;;;10.84;79.38;98223.63;1737318;82;20932;-76
2021/05/28 02:32:38;;;;;;;10.40;6.53;;;;;;;10.82;78.95;98225.81;1737076;82;21109;-75
2021/05/28 02:35:06;;;;;;;7.70;5.50;;;;;;;10.81;79.39;98216.87;1737193;82;20902;-75
2021/05/28 02:37:32;;;;;;;8.77;5.40;;;;;;;10.76;78.04;98218.77;1737364;82;21023;-75
2021/05/28 02:39:59;;;;;;;8.83;5.58;;;;;;;10.66;80.27;98216.91;1712233;82;21389;-75
2021/05/28 02:42:25;;;;;;;10.70;5.45;;;;;;;10.62;79.19;98218.56;1737334;82;20958;-75
2021/05/28 02:44:52;;;;;;;9.83;6.17;;;;;;;10.59;78.89;98217.73;1737235;82;21105;-75
2021/05/28 02:47:20;;;;;;;12.65;7.10;;;;;;;10.54;79.74;98221.28;1737130;82;21080;-76
2021/05/28 02:49:48;;;;;;;9.35;6.37;;;;;;;10.57;78.29;98226.69;1737213;80;20874;-76
2021/05/28 02:52:14;;;;;;;9.75;5.80;;;;;;;10.49;79.47;98228.05;1737103;82;21489;-76
2021/05/28 02:54:42;;;;;;;8.48;5.62;;;;;;;10.45;78.70;98222.38;1712382;82;21545;-76
2021/05/28 02:57:08;;;;;;;11.25;5.35;;;;;;;10.39;79.31;98229.43;1737189;82;21190;-76
2021/05/28 02:59:34;;;;;;;9.28;5.45;;;;;;;10.36;79.16;98234.86;1712078;82;21532;-76
2021/05/28 03:02:01;;;;;;;9.35;5.17;;;;;;;10.30;78.54;98235.94;1737211;82;20965;-76
2021/05/28 03:04:28;;;;;;;10.48;5.03;;;;;;;10.25;79.15;98235.94;1737155;82;21073;-76
2021/05/28 03:06:54;;;;;;;14.20;5.75;;;;;;;10.21;79.10;98238.90;1737120;82;21433;-76
2021/05/28 03:09:20;;;;;;;11.20;7.25;;;;;;;10.18;78.58;98237.56;1737119;82;20996;-76
2021/05/28 03:11:46;;;;;;;13.80;7.17;;;;;;;10.11;78.16;98241.08;1737046;82;21001;-76
2021/05/28 03:14:12;;;;;;;16.20;6.47;;;;;;;10.03;78.55;98246.22;1737297;82;20875;-76
2021/05/28 03:16:38;;;;;;;14.05;6.05;;;;;;;9.98;78.34;98246.20;1737153;82;20873;-76
2021/05/28 03:19:17;;;;;;;11.08;6.35;;;;;;;9.93;78.35;98244.86;1737191;82;20914;-76
2021/05/28 03:24:01;;;;;;;13.05;7.30;;;;;;;9.83;79.04;98245.67;1737058;82;20898;-75
2021/05/28 03:26:28;;;;;;;10.35;6.58;;;;;;;9.87;80.52;98244.03;1737150;82;21045;-75
2021/05/28 03:28:54;;;;;;;10.75;6.30;;;;;;;9.92;79.58;98250.82;1737127;82;20962;-75
2021/05/28 03:31:22;;;;;;;12.40;6.58;;;;;;;9.94;80.36;98249.19;1688618;82;21521;-75
2021/05/28 03:33:48;;;;;;;7.08;5.58;;;;;;;9.97;79.60;98253.52;1737088;82;21192;-75
2021/05/28 03:36:15;;;;;;;18.23;6.17;;;;;;;10.00;78.86;98253.51;1737195;82;20949;-75
2021/05/28 03:38:41;;;;;;;9.85;6.08;;;;;;;9.98;79.28;98248.91;1737069;82;21005;-75
2021/05/28 03:41:07;;;;;;;6.90;5.12;;;;;;;10.00;79.37;98246.73;1737528;82;20962;-75
2021/05/28 03:43:35;;;;;;;12.58;6.42;;;;;;;10.02;79.66;98248.11;1737710;82;21005;-75
2021/05/28 03:46:02;;;;;;;13.05;6.05;;;;;;;10.03;80.81;98259.75;1737280;82;21070;-76
2021/05/28 03:48:28;;;;;;;14.25;6.97;;;;;;;10.06;79.91;98256.49;1737231;82;20962;-76
2021/05/28 03:50:54;;;;;;;10.05;6.62;;;;;;;10.09;79.50;98255.97;1737215;81;20894;-76
2021/05/28 03:53:20;;;;;;;14.65;6.87;;;;;;;10.17;79.33;98264.91;1737311;82;20950;-77
2021/05/28 03:55:46;;;;;;;12.63;5.60;;;;;;;10.24;78.76;98261.39;1737439;82;20901;-76
2021/05/28 03:58:12;;;;;;;10.45;5.87;;;;;;;10.30;77.67;98263.03;1712435;82;21118;-76
2021/05/28 04:00:38;;;;;;;16.25;6.15;;;;;;;10.28;77.88;98263.03;1737238;82;20997;-76
2021/05/28 04:03:05;;;;;;;12.37;6.35;;;;;;;10.37;78.09;98267.63;1737477;82;20953;-76
2021/05/28 04:05:32;;;;;;;11.22;5.90;;;;;;;10.41;77.96;98266.53;1712255;82;21565;-76
2021/05/28 04:07:58;;;;;;;9.00;6.17;;;;;;;10.47;77.85;98268.70;1737769;82;21025;-77
2021/05/28 04:10:24;;;;;;;28.50;14.40;;;;;;;10.54;77.89;98271.41;1737245;82;21856;-77
2021/05/28 04:12:54;;;;;;;12.53;6.10;;;;;;;10.65;77.86;98263.52;1707239;83;20855;-76
2021/05/28 04:15:20;;;;;;;8.83;5.42;;;;;;;10.73;77.68;98260.80;1704209;84;21073;-76
2021/05/28 04:17:46;;;;;;;9.20;5.17;;;;;;;10.67;77.32;98264.05;1704214;84;20978;-76
2021/05/28 04:20:13;;;;;;;8.73;5.47;;;;;;;10.64;77.39;98267.87;1737398;82;21028;-76
2021/05/28 04:22:39;;;;;;;9.88;5.62;;;;;;;10.72;76.83;98271.37;1737171;82;21251;-76
2021/05/28 04:25:07;;;;;;;9.20;6.08;;;;;;;10.84;76.99;98259.68;1737652;82;21113;-76
2021/05/28 04:27:33;;;;;;;8.70;4.53;;;;;;;10.94;76.19;98267.00;1737522;82;21045;-76
2021/05/28 04:30:00;;;;;;;9.65;6.33;;;;;;;10.94;76.19;98267.00;1737388;82;21076;-76
2021/05/28 04:32:27;;;;;;;14.65;8.30;;;;;;;10.85;76.63;98273.53;1712424;82;20978;-76
2021/05/28 04:34:54;;;;;;;9.23;5.67;;;;;;;11.13;76.23;98273.98;1737758;82;21625;-76
2021/05/28 04:37:20;;;;;;;10.58;6.30;;;;;;;11.13;76.23;98273.98;1737224;82;21061;-76
2021/05/28 04:39:46;;;;;;;13.55;5.55;;;;;;;11.15;75.79;98280.74;1737217;82;20985;-76
2021/05/28 04:42:12;;;;;;;9.80;5.65;;;;;;;11.16;75.46;98282.91;1737374;82;20855;-76
2021/05/28 04:44:38;;;;;;;8.88;5.40;;;;;;;11.28;75.34;98275.28;1737292;82;21462;-76
2021/05/28 04:47:04;;;;;;;13.20;6.95;;;;;;;11.41;75.08;98274.66;1737277;82;21801;-76
2021/05/28 04:49:30;;;;;;;11.80;6.75;;;;;;;11.54;74.49;98275.42;1737152;81;20986;-76
2021/05/28 04:51:56;;;;;;;8.45;4.67;;;;;;;11.76;74.55;98273.66;1737319;82;20961;-76
2021/05/28 04:54:22;;;;;;;11.00;5.75;;;;;;;11.95;73.87;98275.19;1737413;82;20898;-76
2021/05/28 04:56:48;;;;;;;7.67;5.33;;;;;;;12.14;73.48;98278.87;1737271;82;20949;-76
2021/05/28 04:59:14;;;;;;;8.28;4.97;;;;;;;12.34;72.94;98277.08;1737146;82;21069;-76
2021/05/28 05:01:40;;;;;;;11.95;6.28;;;;;;;12.42;71.55;98278.64;1737175;82;20955;-76
2021/05/28 05:04:06;;;;;;;11.83;5.95;;;;;;;12.54;71.60;98278.25;1737371;82;20966;-76
2021/05/28 05:06:32;;;;;;;8.90;6.12;;;;;;;12.71;71.44;98277.81;1737231;82;20877;-76
2021/05/28 05:08:58;;;;;;;9.93;6.47;;;;;;;12.83;70.96;98276.09;1712175;82;21638;-76
2021/05/28 05:11:24;;;;;;;12.23;6.50;;;;;;;13.00;70.54;98280.53;1737662;82;20945;-76
2021/05/28 05:13:50;;;;;;;6.85;5.22;;;;;;;13.15;70.34;98272.16;1737678;82;20866;-76
2021/05/28 05:16:16;;;;;;;7.33;5.35;;;;;;;13.32;68.98;98283.97;1737272;82;20959;-76
2021/05/28 05:18:43;;;;;;;7.55;5.30;;;;;;;13.34;65.32;98285.06;1712088;82;21437;-76
2021/05/28 05:21:09;;;;;;;7.87;5.75;;;;;;;13.51;67.07;98279.95;1737714;82;20994;-76
2021/05/28 05:23:35;;;;;;;13.38;5.50;;;;;;;13.64;66.46;98283.84;1737271;82;21101;-76
2021/05/28 05:26:01;;;;;;;8.65;5.12;;;;;;;13.68;64.50;98284.89;1737210;82;20890;-76
2021/05/28 05:28:27;;;;;;;6.90;4.70;;;;;;;13.54;61.62;98285.61;1737314;82;20962;-76
2021/05/28 05:30:53;;;;;;;7.72;5.40;;;;;;;13.71;63.44;98285.11;1737313;82;21536;-76
2021/05/28 05:33:19;;;;;;;12.05;8.40;;;;;;;13.80;63.16;98290.16;1737175;82;20965;-76
2021/05/28 05:35:45;;;;;;;22.40;17.00;;;;;;;13.88;61.45;98296.05;1737251;82;21170;-76
2021/05/28 05:38:11;;;;;;;20.45;15.43;;;;;;;14.08;62.18;98297.10;1706945;83;20855;-76
2021/05/28 05:40:37;;;;;;;17.70;11.60;;;;;;;14.24;62.29;98297.68;1677219;85;21533;-76
2021/05/28 05:43:03;;;;;;;7.92;5.40;;;;;;;14.39;60.93;98299.62;1704005;84;20906;-76
2021/05/28 05:45:29;;;;;;;26.07;18.27;;;;;;;14.69;61.49;98301.59;1703972;84;21058;-76
2021/05/28 05:47:55;;;;;;;9.83;7.15;;;;;;;14.70;59.37;98303.77;1737323;82;21074;-76
2021/05/28 05:50:22;;;;;;;9.10;4.97;;;;;;;14.81;58.86;98293.75;1737165;81;21499;-76
2021/05/28 05:52:50;;;;;;;6.53;3.67;;;;;;;14.79;56.32;98294.62;1737236;82;20945;-76
2021/05/28 05:55:17;;;;;;;6.62;4.05;;;;;;;14.95;56.13;98301.94;1737217;82;21010;-76
2021/05/28 05:57:43;;;;;;;5.53;3.40;;;;;;;15.01;57.14;98302.11;1737149;82;21009;-76
2021/05/28 06:00:11;;;;;;;6.42;3.58;;;;;;;14.90;57.11;98298.77;1737367;82;21277;-76
2021/05/28 06:02:37;;;;;;;5.85;3.70;;;;;;;14.79;56.40;98296.53;1737008;82;21524;-76
2021/05/28 06:05:03;;;;;;;6.45;3.62;;;;;;;14.82;55.82;98306.84;1737291;82;20894;-76
2021/05/28 06:07:29;;;;;;;8.45;4.22;;;;;;;14.91;57.10;98307.76;1712301;82;21619;-76
2021/05/28 06:09:55;;;;;;;6.62;3.95;;;;;;;14.85;55.91;98304.30;1737221;82;21505;-76
2021/05/28 06:12:21;;;;;;;27.55;18.98;;;;;;;14.85;55.52;98296.67;1737143;82;21679;-76
2021/05/28 06:14:47;;;;;;;9.03;6.70;;;;;;;15.04;56.19;98314.33;1712102;82;20882;-76
2021/05/28 06:17:13;;;;;;;8.68;4.12;;;;;;;15.20;56.13;98310.20;1737268;82;21004;-76
2021/05/28 06:19:39;;;;;;;5.40;3.80;;;;;;;15.11;54.46;98308.73;1737238;82;21515;-76
2021/05/28 06:22:05;;;;;;;6.08;3.20;;;;;;;14.90;54.90;98311.05;1737249;82;20957;-76
2021/05/28 06:24:31;;;;;;;3.95;2.85;;;;;;;15.01;54.70;98312.22;1737670;82;21128;-76
2021/05/28 06:26:57;;;;;;;5.53;4.20;;;;;;;15.17;54.51;98314.36;1737121;82;20854;-76
2021/05/28 06:29:23;;;;;;;4.72;3.92;;;;;;;14.96;52.97;98310.41;1737171;82;20993;-76
2021/05/28 06:31:49;;;;;;;5.92;4.33;;;;;;;15.20;54.23;98308.84;1737547;82;20878;-76
2021/05/28 06:34:15;;;;;;;5.58;2.77;;;;;;;14.93;52.49;98306.90;1737352;82;21037;-76
2021/05/28 06:36:40;;;;;;;5.33;3.02;;;;;;;14.99;53.71;98310.35;1737140;82;21579;-76
2021/05/28 06:39:08;;;;;;;5.65;3.92;;;;;;;15.08;52.97;98317.53;1737022;82;20844;-76
2021/05/28 06:41:34;;;;;;;7.05;4.40;;;;;;;15.57;53.34;98314.67;1737205;82;21529;-76
2021/05/28 06:44:00;;;;;;;8.33;6.12;;;;;;;16.00;52.15;98311.59;1737118;82;20986;-76
2021/05/28 06:46:26;;;;;;;7.50;4.20;;;;;;;15.83;49.89;98312.80;1712126;82;20902;-76
2021/05/28 06:48:54;;;;;;;7.87;4.37;;;;;;;15.96;52.37;98310.57;1737272;82;21253;-76
2021/05/28 06:51:20;;;;;;;5.62;2.95;;;;;;;16.02;51.44;98313.45;1744888;80;21051;-76
2021/05/28 06:53:46;;;;;;;5.50;3.85;;;;;;;16.12;51.78;98305.57;1751949;82;20974;-76
2021/05/28 06:56:11;;;;;;;6.05;3.52;;;;;;;15.93;50.44;98312.00;1752207;81;20901;-76
2021/05/28 06:58:38;;;;;;;6.75;3.42;;;;;;;15.63;50.44;98310.73;1751933;82;20993;-76
2021/05/28 07:01:04;;;;;;;6.65;3.62;;;;;;;15.69;51.78;98315.53;1752450;80;21065;-76
2021/05/28 07:03:30;;;;;;;5.25;3.17;;;;;;;15.99;50.54;98307.24;1751957;82;21586;-76
2021/05/28 07:05:56;;;;;;;4.65;2.92;;;;;;;15.87;51.26;98321.42;1724608;82;20916;-76
2021/05/28 07:08:22;;;;;;;5.70;3.35;;;;;;;15.45;50.27;98318.45;1724442;82;20997;-76
2021/05/28 07:10:48;;;;;;;4.65;3.15;;;;;;;15.31;51.30;98314.94;1752572;81;20999;-76
2021/05/28 07:13:14;;;;;;;8.63;3.87;;;;;;;15.43;51.67;98316.59;1752027;82;21114;-76
2021/05/28 07:15:40;;;;;;;8.40;3.92;;;;;;;15.06;52.23;98312.94;1752341;82;21503;-76
2021/05/28 07:18:06;;;;;;;4.62;3.15;;;;;;;15.07;52.62;98314.56;1751967;81;20956;-76
2021/05/28 07:20:32;;;;;;;6.42;4.00;;;;;;;14.81;53.18;98316.13;1752128;80;21054;-76
2021/05/28 07:22:58;;;;;;;8.60;4.53;;;;;;;14.64;54.14;98315.33;1752292;82;20991;-76
2021/05/28 07:25:25;;;;;;;11.57;4.58;;;;;;;14.56;54.35;98323.64;1752082;81;21703;-76
2021/05/28 07:27:51;;;;;;;5.40;3.62;;;;;;;14.58;54.72;98318.69;1752072;82;20956;-76
2021/05/28 07:30:18;;;;;;;4.85;2.77;;;;;;;14.60;53.30;98317.02;1752311;82;20932;-76
2021/05/28 07:32:44;;;;;;;7.65;3.47;;;;;;;14.57;52.71;98319.80;1752147;82;20988;-76
2021/05/28 07:35:10;;;;;;;5.75;3.00;;;;;;;14.61;52.81;98316.75;1752361;80;20880;-76
2021/05/28 07:37:36;;;;;;;4.30;2.80;;;;;;;14.76;52.59;98321.11;1724754;82;21103;-76
2021/05/28 07:40:05;;;;;;;4.62;2.60;;;;;;;14.88;52.97;98321.45;1752231;82;21027;-76
2021/05/28 07:42:32;;;;;;;4.80;2.87;;;;;;;15.11;52.81;98319.66;1752237;80;20952;-76
2021/05/28 07:44:58;;;;;;;5.00;2.80;;;;;;;15.37;52.32;98317.23;1752097;80;21036;-75
2021/05/28 07:47:24;;;;;;;4.65;2.92;;;;;;;15.29;51.43;98321.23;1752171;81;21063;-75
2021/05/28 07:49:50;;;;;;;5.62;3.40;;;;;;;15.43;51.00;98318.77;1752620;81;21012;-75
2021/05/28 07:52:16;;;;;;;4.37;2.65;;;;;;;15.38;51.33;98318.88;1740175;81;20961;-75
2021/05/28 07:54:42;;;;;;;5.58;2.33;;;;;;;15.18;50.76;98313.24;1737360;82;20918;-75
2021/05/28 07:57:08;;;;;;;3.70;2.37;;;;;;;15.12;51.67;98319.09;1712250;82;21418;-75
2021/05/28 07:59:34;;;;;;;4.30;2.77;;;;;;;14.88;51.67;98318.73;1737257;82;20961;-75
2021/05/28 08:02:00;;;;;;;3.20;2.50;;;;;;;14.56;53.39;98319.55;1737624;82;21124;-75
2021/05/28 08:04:26;;;;;;;4.37;3.20;;;;;;;14.54;53.72;98321.77;1737364;82;20870;-75
2021/05/28 08:06:52;;;;;;;2.45;2.05;;;;;;;14.23;54.37;98325.49;1737346;82;21021;-75
2021/05/28 08:09:18;;;;;;;4.62;3.00;;;;;;;14.32;54.48;98325.63;1737246;82;20905;-75
2021/05/28 08:11:44;;;;;;;4.90;3.70;;;;;;;14.43;54.77;98323.55;1737211;82;21005;-75
2021/05/28 08:14:10;;;;;;;4.03;2.92;;;;;;;14.53;54.44;98320.16;1737629;82;21176;-75
2021/05/28 08:16:36;;;;;;;3.55;2.92;;;;;;;14.78;54.32;98315.34;1737317;82;20883;-75
2021/05/28 08:19:02;;;;;;;5.65;2.90;;;;;;;14.94;53.69;98313.41;1737271;82;21009;-75
2021/05/28 08:21:29;;;;;;;6.20;2.65;;;;;;;14.94;53.30;98315.33;1737302;82;21017;-76
2021/05/28 08:23:55;;;;;;;3.58;2.65;;;;;;;15.34;51.96;98314.31;1737371;82;21425;-76
2021/05/28 08:26:21;;;;;;;5.05;2.80;;;;;;;15.76;52.37;98315.38;1712337;82;21844;-76
2021/05/28 08:28:47;;;;;;;4.42;3.02;;;;;;;15.74;51.54;98320.91;1737254;82;20934;-76
2021/05/28 08:31:13;;;;;;;6.55;3.75;;;;;;;15.85;50.80;98316.02;1737350;82;21497;-76
2021/05/28 08:33:39;;;;;;;4.62;3.30;;;;;;;16.41;51.24;98319.66;1737246;82;21547;-76
2021/05/28 08:36:06;;;;;;;3.95;2.65;;;;;;;16.59;49.64;98314.55;1737182;82;20957;-76
2021/05/28 08:38:32;;;;;;;4.90;2.60;;;;;;;16.70;49.85;98317.86;1737312;82;21077;-76
2021/05/28 08:40:58;;;;;;;4.10;3.27;;;;;;;16.60;49.99;98315.36;1737148;82;21501;-76
2021/05/28 08:43:24;;;;;;;4.03;3.10;;;;;;;16.49;49.88;98315.34;1737197;82;20914;-76
2021/05/28 08:45:50;;;;;;;5.03;3.22;;;;;;;16.47;49.68;98321.69;1737224;82;21160;-76
2021/05/28 08:48:18;;;;;;;4.25;3.25;;;;;;;16.17;49.98;98319.13;1737303;82;20914;-76
2021/05/28 08:50:46;;;;;;;3.58;2.30;;;;;;;16.14;50.60;98319.17;1737579;80;20977;-76
2021/05/28 08:53:13;;;;;;;3.62;2.95;;;;;;;15.96;50.57;98316.03;1752275;81;20995;-76
2021/05/28 08:55:40;;;;;;;3.95;3.30;;;;;;;15.80;50.84;98320.47;1752109;82;21033;-76
2021/05/28 08:58:15;;;;;;;5.00;3.10;;;;;;;15.68;50.97;98320.19;1752064;81;21000;-76
2021/05/28 09:00:46;;;;;;;4.05;2.55;;;;;;;15.53;51.04;98318.55;1752136;82;21043;-75
2021/05/28 09:03:28;;;;;;;8.35;3.55;;;;;;;15.71;51.33;98318.20;1751016;82;21083;-76
2021/05/28 09:05:59;;;;;;;6.72;3.35;;;;;;;15.71;51.17;98322.86;1752226;82;20957;-77
2021/05/28 09:08:33;;;;;;;4.42;2.85;;;;;;;15.80;51.16;98317.73;1724668;82;20937;-77
2021/05/28 09:11:14;;;;;;;5.17;3.02;;;;;;;15.91;50.89;98318.90;1752466;82;20996;-77
2021/05/28 09:13:56;;;;;;;3.75;2.90;;;;;;;15.90;50.53;98314.00;1752003;82;21048;-76
2021/05/28 09:16:24;;;;;;;4.65;2.95;;;;;;;16.16;49.39;98316.96;1751732;82;21688;-77
2021/05/28 09:18:58;;;;;;;5.33;3.17;;;;;;;16.87;48.67;98311.69;1752060;80;21583;-75
2021/05/28 09:21:33;;;;;;;6.20;3.67;;;;;;;16.73;48.55;98320.53;1752576;82;21000;-76
2021/05/28 09:24:07;;;;;;;4.60;3.25;;;;;;;16.35;49.29;98312.12;1752019;82;21082;-76
2021/05/28 09:26:35;;;;;;;4.78;3.67;;;;;;;15.95;49.97;98307.03;1752059;81;20984;-76
2021/05/28 09:29:01;;;;;;;5.53;3.52;;;;;;;15.64;50.45;98313.73;1751987;80;21219;-77
2021/05/28 09:31:29;;;;;;;6.03;3.72;;;;;;;15.39;51.47;98311.50;1751919;80;21027;-76
2021/05/28 09:33:57;;;;;;;5.53;3.72;;;;;;;15.15;51.98;98318.52;1752235;80;21417;-76
2021/05/28 09:36:25;;;;;;;6.55;4.15;;;;;;;15.16;52.28;98320.12;1752022;81;21084;-76
2021/05/28 09:39:11;;;;;;;5.57;4.50;;;;;;;14.94;54.37;98317.50;1752305;82;21051;-77
2021/05/28 09:41:53;;;;;;;6.33;5.12;;;;;;;14.92;54.59;98315.64;1752028;82;21582;-77
2021/05/28 09:44:27;;;;;;;6.55;4.67;;;;;;;14.84;55.35;98317.70;1751938;82;21054;-76
2021/05/28 09:47:14;;;;;;;7.25;5.35;;;;;;;14.88;54.58;98317.36;1752048;81;21029;-77
2021/05/28 09:49:46;;;;;;;5.67;4.00;;;;;;;15.32;53.72;98321.45;1726003;82;21028;-77
2021/05/28 09:52:23;;;;;;;12.03;4.47;;;;;;;15.77;53.10;98317.55;1744341;80;20982;-75
2021/05/28 09:55:06;;;;;;;4.95;3.22;;;;;;;16.15;52.37;98314.51;1737121;82;21227;-77
2021/05/28 09:57:46;;;;;;;5.03;3.70;;;;;;;16.71;51.42;98311.83;1689030;82;21520;-75
2021/05/28 10:00:32;;;;;;;6.97;4.08;;;;;;;17.33;49.36;98307.14;1712305;82;20989;-75
2021/05/28 10:03:23;;;;;;;4.45;4.05;;;;;;;17.69;46.31;98312.99;1736861;82;21062;-77
2021/05/28 10:05:58;;;;;;;5.28;3.30;;;;;;;18.12;46.47;98308.97;1737164;82;21071;-77
2021/05/28 10:08:25;;;;;;;4.92;3.58;;;;;;;18.11;46.58;98312.81;1737201;82;21180;-76
2021/05/28 10:10:53;;;;;;;6.90;3.33;;;;;;;17.86;43.54;98309.48;1737241;82;20990;-76
2021/05/28 10:13:22;;;;;;;9.50;3.95;;;;;;;17.92;45.05;98304.91;1737261;82;21025;-77
2021/05/28 10:15:51;;;;;;;;;;;;;;;18.09;45.34;98305.48;1739788;82;21021;-77
2021/05/28 10:18:18;;;;;;;3.47;3.10;;;;;;;17.93;45.45;98307.88;1712277;82;20549;-77
2021/05/28 10:20:47;;;;;;;4.95;3.30;;;;;;;19.07;43.32;98297.08;1737254;82;21485;-77
2021/05/28 10:23:13;;;;;;;4.37;3.30;;;;;;;19.80;43.46;98289.45;1737040;82;21001;-77
2021/05/28 10:25:40;;;;;;;4.55;3.25;;;;;;;21.46;38.52;98291.70;1737094;82;21017;-77
2021/05/28 10:28:09;;;;;;;6.42;2.80;;;;;;;21.22;38.17;98288.32;1712487;82;21028;-77
2021/05/28 10:30:38;;;;;;;4.00;3.52;;;;;;;20.78;38.53;98282.50;1736238;82;20970;-77
2021/05/28 10:33:25;;;;;;;5.65;4.17;;;;;;;20.18;40.78;98281.67;1737169;82;21056;-77
2021/05/28 10:35:56;;;;;;;4.83;3.65;;;;;;;19.24;41.78;98287.39;1737869;82;21005;-75
2021/05/28 10:38:43;;;;;;;5.92;4.70;;;;;;;18.68;43.71;98287.97;1737152;82;21002;-76
2021/05/28 10:41:18;;;;;;;6.60;4.78;;;;;;;18.44;44.48;98284.90;1712266;82;21546;-76
2021/05/28 10:43:57;;;;;;;5.50;3.85;;;;;;;17.65;45.95;98286.77;1736208;81;21022;-76
2021/05/28 10:46:23;;;;;;;8.20;4.53;;;;;;;17.42;46.52;98283.89;1717142;83;21099;-75
2021/05/28 10:49:08;;;;;;;3.95;3.05;;;;;;;17.34;46.44;98279.99;1692560;83;20892;-74
2021/05/28 10:51:39;;;;;;;4.08;3.17;;;;;;;17.30;46.94;98281.77;1715767;83;20924;-74
2021/05/28 10:54:16;;;;;;;5.95;3.77;;;;;;;17.87;46.16;98282.34;1740043;81;20992;-76
2021/05/28 10:56:45;;;;;;;4.45;3.33;;;;;;;18.23;45.26;98277.91;1774420;80;20972;-75
2021/05/28 10:59:19;;;;;;;4.75;3.25;;;;;;;18.50;44.42;98280.87;1777398;80;21706;-76
2021/05/28 11:01:56;;;;;;;3.87;3.27;;;;;;;18.71;44.01;98274.95;1777218;80;21028;-75
2021/05/28 11:04:24;;;;;;;3.35;2.60;;;;;;;19.49;42.38;98277.42;1776801;80;20996;-75
2021/05/28 11:07:04;;;;;;;3.37;2.77;;;;;;;19.33;40.25;98273.63;1777268;80;21038;-75
2021/05/28 11:09:43;;;;;;;5.05;2.83;;;;;;;19.59;41.78;98272.14;1777184;80;21040;-76
2021/05/28 11:12:17;;;;;;;2.77;2.45;;;;;;;19.47;42.00;98267.88;1777267;80;21121;-76
2021/05/28 11:15:03;;;;;;;3.45;2.87;;;;;;;19.22;41.38;98280.59;1746970;80;20995;-76
2021/05/28 11:17:29;;;;;;;5.72;2.90;;;;;;;19.00;40.99;98274.80;1777191;80;21530;-76
2021/05/28 11:19:57;;;;;;;3.67;2.85;;;;;;;19.06;42.06;98273.50;1747247;80;20900;-75
2021/05/28 11:22:30;;;;;;;4.35;2.83;;;;;;;18.69;42.44;98275.84;1777180;79;20984;-76
2021/05/28 11:25:00;;;;;;;4.17;2.47;;;;;;;19.55;41.10;98273.32;1777417;80;21380;-77
2021/05/28 11:27:35;;;;;;;4.47;2.77;;;;;;;19.38;39.96;98277.53;1777317;80;20948;-76
2021/05/28 11:30:09;;;;;;;3.17;2.40;;;;;;;19.53;41.17;98263.23;1722351;82;21051;-76
2021/05/28 11:32:44;;;;;;;3.92;2.60;;;;;;;19.60;40.61;98265.50;1714606;82;21423;-76
2021/05/28 11:35:23;;;;;;;4.87;2.65;;;;;;;19.38;39.67;98263.23;1714112;82;21474;-75
2021/05/28 11:37:58;;;;;;;7.55;2.40;;;;;;;21.33;38.77;98256.42;1722251;83;21081;-75